Terminal Aerodrome Forecast
Issued by NWS

Home | Current Version | Previous Version | Text Only | Print | Product List | Glossary On
Versions: 1 2 3 4 5 6 7 8 9 10 11 12 13
000
FTUS45 KABQ 262300
TAFGUP
TAF
KGUP 262333Z 2700/2724 01006KT P6SM SCT150
     FM270300 VRB04KT P6SM BKN110 OVC150
     FM271100 13007KT P6SM VCSH BKN050 OVC090
     FM271900 23008KT P6SM SCT060 BKN090=

USA.gov is the U.S. government's official web portal to all federal, state and local government web resources and services.